Time;durP1;ratioP1;P1;durP2;ratioP2;P2;SDS_P1;SDS_P2;PMS_P1;PMS_P2;Temp;Humidity;BMP_temperature;BMP_pressure;BME280_temperature;BME280_humidity;BME280_pressure;Samples;Min_cycle;Max_cycle;Signal;HPM_P1;HPM_P2
2022/12/21 00:01:13;;;;;;;8.33;6.97;;;1.00;99.90;;;;;;5053523;28;20481;-52
2022/12/21 00:03:41;;;;;;;7.00;6.33;;;1.00;99.90;;;;;;5052767;28;20861;-52
2022/12/21 00:06:08;;;;;;;5.23;4.73;;;0.70;99.90;;;;;;5053926;28;20867;-52
2022/12/21 00:08:36;;;;;;;5.70;4.63;;;0.30;99.90;;;;;;5053499;28;20617;-53
2022/12/21 00:11:04;;;;;;;4.87;4.03;;;0.50;99.90;;;;;;5052789;28;20545;-54
2022/12/21 00:13:32;;;;;;;4.63;4.20;;;0.60;99.90;;;;;;5053019;28;20997;-52
2022/12/21 00:16:00;;;;;;;6.00;4.77;;;0.30;99.90;;;;;;5053147;28;20453;-51
2022/12/21 00:18:27;;;;;;;7.90;7.03;;;0.00;99.90;;;;;;5053148;28;20513;-52
2022/12/21 00:21:00;;;;;;;8.17;7.20;;;0.00;99.90;;;;;;5052591;28;20477;-52
2022/12/21 00:23:27;;;;;;;7.60;6.20;;;0.20;99.90;;;;;;5052969;28;21009;-52
2022/12/21 00:25:54;;;;;;;6.50;5.00;;;0.40;99.90;;;;;;5051605;28;20548;-52
2022/12/21 00:28:21;;;;;;;4.43;4.00;;;0.40;99.90;;;;;;5053276;28;20514;-52
2022/12/21 00:30:48;;;;;;;3.83;3.00;;;0.60;99.90;;;;;;5052719;28;20522;-52
2022/12/21 00:33:15;;;;;;;7.53;2.53;;;0.70;99.90;;;;;;5051806;28;20946;-52
2022/12/21 00:35:47;;;;;;;6.00;5.40;;;0.40;99.90;;;;;;5051603;28;20544;-52
2022/12/21 00:38:16;;;;;;;4.70;4.10;;;0.20;99.90;;;;;;5051476;28;20440;-52
2022/12/21 00:40:43;;;;;;;5.07;4.30;;;0.40;99.90;;;;;;5051058;28;20568;-52
2022/12/21 00:43:10;;;;;;;6.57;4.40;;;0.70;99.90;;;;;;5049697;28;20466;-52
2022/12/21 00:45:37;;;;;;;10.47;9.33;;;0.70;99.90;;;;;;5051211;28;20885;-52
2022/12/21 00:48:05;;;;;;;10.80;9.20;;;0.30;99.90;;;;;;5052186;28;20529;-51
2022/12/21 00:50:33;;;;;;;10.10;8.07;;;0.20;99.90;;;;;;5052928;28;20493;-52
2022/12/21 00:53:00;;;;;;;9.17;7.63;;;-0.10;99.90;;;;;;5052084;28;20986;-52
2022/12/21 00:55:28;;;;;;;7.87;6.17;;;0.20;99.90;;;;;;5052767;28;20537;-52
2022/12/21 00:57:55;;;;;;;9.67;7.40;;;0.30;99.90;;;;;;5052268;28;20473;-52
2022/12/21 01:00:22;;;;;;;10.57;9.67;;;0.20;99.90;;;;;;5052549;28;20548;-52
2022/12/21 01:02:49;;;;;;;14.83;9.73;;;0.20;99.90;;;;;;5050821;28;20478;-52
2022/12/21 01:05:16;;;;;;;21.03;12.87;;;0.20;99.90;;;;;;5052247;28;20533;-53
2022/12/21 01:07:43;;;;;;;14.53;10.97;;;0.30;99.90;;;;;;5051788;28;20529;-53
2022/12/21 01:10:11;;;;;;;9.50;7.87;;;0.10;99.90;;;;;;5051963;28;20739;-52
2022/12/21 01:12:39;;;;;;;6.63;4.73;;;0.30;99.90;;;;;;5052510;28;20531;-52
2022/12/21 01:15:07;;;;;;;4.67;4.17;;;0.60;99.90;;;;;;5052450;28;20470;-52
2022/12/21 01:17:34;;;;;;;3.33;3.03;;;0.80;99.90;;;;;;5051871;28;20810;-52
2022/12/21 01:20:01;;;;;;;3.43;3.07;;;0.80;99.90;;;;;;5032274;28;20506;-51
2022/12/21 01:22:28;;;;;;;2.70;2.50;;;0.80;99.90;;;;;;5048186;28;20441;-52
2022/12/21 01:24:55;;;;;;;3.50;3.13;;;0.90;99.90;;;;;;5051530;28;20481;-52
2022/12/21 01:27:22;;;;;;;17.07;9.10;;;0.90;99.90;;;;;;5052453;28;20492;-53
2022/12/21 01:29:50;;;;;;;8.80;6.73;;;0.40;99.90;;;;;;5051686;28;20498;-51
2022/12/21 01:32:17;;;;;;;5.80;4.57;;;0.20;99.90;;;;;;5051628;28;20541;-52
2022/12/21 01:34:44;;;;;;;3.97;3.47;;;0.40;99.90;;;;;;5051774;28;21014;-52
2022/12/21 01:37:11;;;;;;;5.37;2.80;;;0.70;99.90;;;;;;5051663;28;20531;-52
2022/12/21 01:39:38;;;;;;;7.83;5.97;;;0.90;99.90;;;;;;5051600;28;20562;-52
2022/12/21 01:42:05;;;;;;;12.73;11.10;;;0.80;99.90;;;;;;5051971;28;20947;-52
2022/12/21 01:45:07;;;;;;;13.90;10.43;;;0.60;99.90;;;;;;5051235;28;20529;-52
2022/12/21 01:47:39;;;;;;;11.33;8.63;;;0.40;99.90;;;;;;4970743;28;20536;-52
2022/12/21 01:50:25;;;;;;;11.13;7.27;;;0.20;99.90;;;;;;4970019;28;20540;-52
2022/12/21 01:52:54;;;;;;;9.13;6.97;;;0.40;99.90;;;;;;5020474;28;20541;-52
2022/12/21 01:55:22;;;;;;;7.00;5.70;;;0.40;99.90;;;;;;5052106;28;20537;-51
2022/12/21 01:57:49;;;;;;;8.10;6.03;;;0.60;99.90;;;;;;5051367;28;20499;-52
2022/12/21 02:00:18;;;;;;;3.40;3.10;;;0.60;99.90;;;;;;5051609;28;20506;-53
2022/12/21 02:02:50;;;;;;;5.10;3.60;;;0.70;99.90;;;;;;5051021;28;20547;-52
2022/12/21 02:05:24;;;;;;;3.13;2.83;;;0.90;99.90;;;;;;5051579;28;20484;-52
2022/12/21 02:07:52;;;;;;;4.57;2.60;;;1.00;99.90;;;;;;5051125;28;20954;-52
2022/12/21 02:10:19;;;;;;;9.50;7.70;;;1.00;99.90;;;;;;5051256;28;20545;-53
2022/12/21 02:12:48;;;;;;;15.10;9.50;;;0.60;99.90;;;;;;5051229;28;20446;-52
2022/12/21 02:15:15;;;;;;;12.37;8.50;;;0.40;99.90;;;;;;5051416;28;20539;-52
2022/12/21 02:17:52;;;;;;;14.53;9.40;;;0.30;99.90;;;;;;5050525;28;20470;-52
2022/12/21 02:20:45;;;;;;;11.30;8.30;;;0.60;99.90;;;;;;5037958;28;20551;-52
2022/12/21 02:23:50;;;;;;;13.50;8.93;;;0.60;99.90;;;;;;5050693;28;20477;-52
2022/12/21 02:26:41;;;;;;;20.93;10.97;;;0.70;99.90;;;;;;5050504;28;20441;-51
2022/12/21 02:29:36;;;;;;;13.97;8.97;;;0.40;99.90;;;;;;5050470;28;20457;-52
2022/12/21 02:32:13;;;;;;;9.53;7.80;;;0.40;99.90;;;;;;5037179;28;20492;-52
2022/12/21 02:34:50;;;;;;;6.73;4.50;;;0.40;99.90;;;;;;5031315;28;20447;-52
2022/12/21 02:37:25;;;;;;;2.20;1.60;;;0.60;99.90;;;;;;5043839;28;20473;-54
2022/12/21 02:40:01;;;;;;;1.57;1.47;;;1.00;99.90;;;;;;5117382;22;20578;-48
2022/12/21 02:45:28;;;;;;;13.17;5.40;;;1.20;99.90;;;;;;5091225;28;20447;-45
2022/12/21 02:48:03;;;;;;;12.23;7.50;;;1.10;99.90;;;;;;5090192;28;20527;-48
2022/12/21 02:50:33;;;;;;;13.00;9.27;;;1.00;99.90;;;;;;5091118;28;20543;-49
2022/12/21 02:53:06;;;;;;;17.53;11.30;;;0.60;99.90;;;;;;5090696;28;20524;-49
2022/12/21 02:55:33;;;;;;;9.70;6.40;;;0.50;99.90;;;;;;5091181;28;20528;-50
2022/12/21 02:58:19;;;;;;;7.63;5.57;;;0.50;99.90;;;;;;5090723;28;20531;-48
2022/12/21 03:01:00;;;;;;;6.80;6.00;;;0.70;99.90;;;;;;5090729;28;20507;-48
2022/12/21 03:03:49;;;;;;;12.47;8.57;;;0.80;99.90;;;;;;5090170;28;20526;-48
2022/12/21 03:06:30;;;;;;;10.00;7.57;;;0.80;99.90;;;;;;5090454;28;20482;-49
2022/12/21 03:09:08;;;;;;;11.47;7.53;;;0.70;99.90;;;;;;5080653;28;20479;-48
2022/12/21 03:11:45;;;;;;;5.93;5.20;;;0.70;99.90;;;;;;5091114;28;20531;-50
2022/12/21 03:14:22;;;;;;;7.07;5.00;;;0.70;99.90;;;;;;5078322;28;21016;-48
2022/12/21 03:16:51;;;;;;;6.43;4.57;;;0.80;99.90;;;;;;5090820;28;20526;-49
2022/12/21 03:19:25;;;;;;;1.60;1.43;;;1.00;99.90;;;;;;5090007;28;20638;-48
2022/12/21 03:21:57;;;;;;;2.50;1.63;;;1.20;99.90;;;;;;5090808;28;20527;-48
2022/12/21 03:24:29;;;;;;;2.13;1.50;;;1.20;99.90;;;;;;5082224;28;20526;-49
2022/12/21 03:27:00;;;;;;;2.03;1.70;;;1.30;99.90;;;;;;5090507;28;20535;-48
2022/12/21 03:29:34;;;;;;;3.80;2.93;;;1.20;99.90;;;;;;5090419;28;20543;-48
2022/12/21 03:32:07;;;;;;;3.27;2.27;;;1.20;99.90;;;;;;5090109;28;20871;-49
2022/12/21 03:34:39;;;;;;;2.27;1.70;;;1.30;99.90;;;;;;5090749;28;20523;-50
2022/12/21 03:37:08;;;;;;;12.23;7.63;;;1.20;99.90;;;;;;5090636;28;20530;-51
2022/12/21 03:39:39;;;;;;;22.00;11.90;;;1.10;99.90;;;;;;5089816;28;20992;-48
2022/12/21 03:42:11;;;;;;;20.53;10.87;;;0.60;99.90;;;;;;5090514;28;20524;-48
2022/12/21 03:44:42;;;;;;;20.50;12.30;;;0.30;99.90;;;;;;5090478;28;20537;-48
2022/12/21 03:47:13;;;;;;;16.10;9.93;;;0.30;99.90;;;;;;5090285;28;20467;-49
2022/12/21 03:49:46;;;;;;;10.60;7.30;;;0.50;99.90;;;;;;5090317;28;20487;-50
2022/12/21 03:52:16;;;;;;;12.10;6.53;;;0.60;99.90;;;;;;5091044;28;20829;-48
2022/12/21 03:54:47;;;;;;;9.60;7.30;;;0.70;99.90;;;;;;5090115;28;20436;-48
2022/12/21 03:57:16;;;;;;;9.07;6.17;;;0.90;99.90;;;;;;5089944;28;20517;-48
2022/12/21 03:59:46;;;;;;;9.00;6.07;;;0.80;99.90;;;;;;5090330;28;20567;-48
2022/12/21 04:02:20;;;;;;;9.93;6.43;;;0.90;99.90;;;;;;5078233;28;20540;-47
2022/12/21 04:04:56;;;;;;;14.30;9.20;;;0.90;99.90;;;;;;5093584;28;20518;-48
2022/12/21 04:07:26;;;;;;;15.97;10.10;;;0.70;99.90;;;;;;5093294;28;20852;-48
2022/12/21 04:09:58;;;;;;;11.03;8.20;;;0.90;99.90;;;;;;5094186;28;20551;-48
2022/12/21 04:15:16;;;;;;;20.23;11.90;;;1.00;99.90;;;;;;5082414;28;20424;-48
2022/12/21 04:17:45;;;;;;;11.30;8.13;;;0.80;99.90;;;;;;5090270;28;20518;-48
2022/12/21 04:20:15;;;;;;;12.47;9.00;;;0.80;99.90;;;;;;5092866;28;20559;-48
2022/12/21 04:28:20;;;;;;;15.00;9.87;;;0.70;99.90;;;;;;5092785;28;20427;-49
2022/12/21 04:30:47;;;;;;;10.17;7.70;;;0.70;99.90;;;;;;5093464;28;20491;-48
2022/12/21 04:33:16;;;;;;;10.43;8.23;;;0.90;99.90;;;;;;5093310;28;20878;-51
2022/12/21 04:38:26;;;;;;;4.80;3.60;;;0.90;99.90;;;;;;5092056;28;20526;-50
2022/12/21 04:40:54;;;;;;;3.50;3.20;;;1.10;99.90;;;;;;5093202;28;20530;-48
2022/12/21 04:43:21;;;;;;;4.33;3.67;;;1.30;99.90;;;;;;5092756;28;20807;-48
2022/12/21 04:45:48;;;;;;;12.67;10.30;;;1.30;99.90;;;;;;5093192;28;20475;-48
2022/12/21 04:48:15;;;;;;;15.20;11.50;;;1.30;99.90;;;;;;5092450;28;20527;-48
2022/12/21 04:50:43;;;;;;;7.37;6.60;;;0.80;99.90;;;;;;5092216;28;20475;-45
2022/12/21 04:53:10;;;;;;;9.20;6.03;;;0.90;99.90;;;;;;5092705;28;20886;-48
2022/12/21 04:55:37;;;;;;;10.90;6.90;;;0.80;99.90;;;;;;5093360;28;20523;-48
2022/12/21 04:58:05;;;;;;;5.30;4.50;;;0.90;99.90;;;;;;5092501;28;20474;-48
2022/12/21 05:00:32;;;;;;;4.53;2.73;;;1.10;99.90;;;;;;5092367;28;20893;-48
2022/12/21 05:02:59;;;;;;;3.43;2.83;;;1.20;99.90;;;;;;5092034;28;20524;-48
2022/12/21 05:05:26;;;;;;;9.30;7.47;;;1.30;99.90;;;;;;5092712;28;20941;-48
2022/12/21 05:07:54;;;;;;;14.40;10.17;;;1.20;99.90;;;;;;5093211;28;20475;-48
2022/12/21 05:10:21;;;;;;;13.23;11.30;;;1.10;99.90;;;;;;5091570;28;20484;-48
2022/12/21 05:12:48;;;;;;;14.17;11.23;;;1.00;99.90;;;;;;5092664;28;20535;-49
2022/12/21 05:15:16;;;;;;;12.43;9.37;;;1.00;99.90;;;;;;5092359;28;20530;-48
2022/12/21 05:17:43;;;;;;;13.07;8.47;;;1.00;99.90;;;;;;5091654;28;20444;-49
2022/12/21 05:20:11;;;;;;;4.73;3.57;;;1.00;99.90;;;;;;5091881;28;20553;-47
2022/12/21 05:22:38;;;;;;;2.80;2.50;;;1.10;99.90;;;;;;5092409;28;20515;-48
2022/12/21 05:25:07;;;;;;;2.70;2.47;;;1.60;99.90;;;;;;5092290;28;20527;-50
2022/12/21 05:27:34;;;;;;;3.20;2.37;;;1.70;99.90;;;;;;5091047;28;20542;-49
2022/12/21 05:30:01;;;;;;;5.20;4.20;;;1.70;99.90;;;;;;5091851;28;20549;-48
2022/12/21 05:32:28;;;;;;;13.90;10.20;;;1.60;99.90;;;;;;5092449;28;20493;-49
2022/12/21 05:34:54;;;;;;;13.63;10.20;;;1.40;99.90;;;;;;5092177;28;20443;-48
2022/12/21 05:37:21;;;;;;;11.20;8.63;;;1.30;99.90;;;;;;5092284;28;20941;-48
2022/12/21 05:39:48;;;;;;;10.40;9.20;;;1.30;99.90;;;;;;5090762;28;21067;-48
2022/12/21 05:42:16;;;;;;;11.07;9.97;;;1.30;99.90;;;;;;5091027;28;20464;-48
2022/12/21 05:44:43;;;;;;;11.10;8.93;;;1.20;99.90;;;;;;5091562;28;20519;-48
2022/12/21 05:47:10;;;;;;;13.73;9.70;;;1.20;99.90;;;;;;5091642;28;20945;-50
2022/12/21 05:49:37;;;;;;;10.93;8.63;;;1.20;99.90;;;;;;5088489;28;20579;-48
2022/12/21 05:52:04;;;;;;;10.23;9.23;;;1.00;99.90;;;;;;5091880;28;20464;-49
2022/12/21 05:54:31;;;;;;;11.90;9.73;;;0.90;99.90;;;;;;5090628;28;20472;-48
2022/12/21 05:56:58;;;;;;;12.17;8.20;;;0.80;99.90;;;;;;5091528;28;20530;-48
2022/12/21 05:59:26;;;;;;;8.67;5.63;;;1.00;99.90;;;;;;5091920;28;20560;-49
2022/12/21 06:01:53;;;;;;;6.30;5.43;;;1.30;99.90;;;;;;5091133;28;20555;-49
2022/12/21 06:04:20;;;;;;;5.80;5.33;;;1.40;99.90;;;;;;5091516;28;20471;-48
2022/12/21 06:06:47;;;;;;;7.20;6.50;;;1.50;99.90;;;;;;5087887;28;20527;-48
2022/12/21 06:09:14;;;;;;;12.00;8.23;;;1.50;99.90;;;;;;5091285;28;20467;-48
2022/12/21 06:11:41;;;;;;;11.90;10.57;;;1.50;99.90;;;;;;5091852;28;20856;-48
2022/12/21 06:14:08;;;;;;;12.37;11.00;;;1.40;99.90;;;;;;5091613;28;20443;-48
2022/12/21 06:16:36;;;;;;;11.40;9.60;;;1.20;99.90;;;;;;5091794;28;20971;-48
2022/12/21 06:19:03;;;;;;;12.87;11.57;;;1.20;99.90;;;;;;5091117;28;20468;-48
2022/12/21 06:21:30;;;;;;;13.30;12.00;;;1.20;99.90;;;;;;5090696;28;20551;-51
2022/12/21 06:23:57;;;;;;;17.97;12.70;;;1.20;99.90;;;;;;5090629;28;20523;-49
2022/12/21 06:26:25;;;;;;;13.00;10.93;;;1.10;99.90;;;;;;5091695;28;20473;-48
2022/12/21 06:28:53;;;;;;;17.27;13.10;;;1.00;99.90;;;;;;5091583;28;20526;-48
2022/12/21 06:31:22;;;;;;;12.30;11.10;;;1.00;99.90;;;;;;5091762;28;20463;-48
2022/12/21 06:33:50;;;;;;;19.00;14.50;;;1.10;99.90;;;;;;5091071;28;20475;-51
2022/12/21 06:36:17;;;;;;;30.23;20.80;;;1.10;99.90;;;;;;5091471;28;21007;-50
2022/12/21 06:38:44;;;;;;;25.00;19.47;;;1.10;99.90;;;;;;5091638;28;20531;-48
2022/12/21 06:41:13;;;;;;;14.90;10.83;;;1.10;99.90;;;;;;5091218;28;20566;-48
2022/12/21 06:43:41;;;;;;;19.03;13.67;;;1.20;99.90;;;;;;5091315;28;20463;-49
2022/12/21 06:46:09;;;;;;;17.77;12.10;;;1.40;99.90;;;;;;5091186;28;20501;-48
2022/12/21 06:48:37;;;;;;;13.10;7.00;;;1.50;99.90;;;;;;5090974;28;20535;-47
2022/12/21 06:51:07;;;;;;;7.23;5.50;;;1.50;99.90;;;;;;5074704;28;20487;-49
2022/12/21 06:53:36;;;;;;;5.97;5.17;;;1.50;99.90;;;;;;5091486;28;20529;-50
2022/12/21 06:56:05;;;;;;;15.27;13.67;;;1.50;99.90;;;;;;5091275;28;20527;-48
2022/12/21 06:58:32;;;;;;;18.77;14.40;;;1.50;99.90;;;;;;5091263;28;20526;-47
2022/12/21 07:01:05;;;;;;;21.13;16.47;;;1.30;99.90;;;;;;5074452;28;20564;-47
2022/12/21 07:03:33;;;;;;;27.37;17.40;;;1.30;99.90;;;;;;5091271;28;20436;-48
2022/12/21 07:06:00;;;;;;;17.70;15.43;;;1.20;99.90;;;;;;5090894;28;20444;-48
2022/12/21 07:08:29;;;;;;;23.90;15.33;;;1.30;99.90;;;;;;5091150;28;20443;-48
2022/12/21 07:10:57;;;;;;;71.50;55.47;;;1.40;99.90;;;;;;5090894;28;20541;-48
2022/12/21 07:13:25;;;;;;;10.67;9.57;;;1.50;99.90;;;;;;5091437;28;20442;-48
2022/12/21 07:15:52;;;;;;;7.27;6.60;;;1.60;99.90;;;;;;5090401;28;20440;-50
2022/12/21 07:18:19;;;;;;;9.93;8.93;;;1.70;99.90;;;;;;5091081;28;20535;-48
2022/12/21 07:20:46;;;;;;;28.53;18.17;;;1.70;99.90;;;;;;5090680;28;20798;-48
2022/12/21 07:23:13;;;;;;;21.13;17.60;;;1.40;99.90;;;;;;5090837;28;20439;-47
2022/12/21 07:25:42;;;;;;;21.37;18.20;;;1.10;99.90;;;;;;5090537;28;20717;-48
2022/12/21 07:28:09;;;;;;;20.13;16.57;;;0.90;99.90;;;;;;5091051;28;20518;-48
2022/12/21 07:30:35;;;;;;;18.80;15.83;;;1.00;99.90;;;;;;5090813;28;20887;-48
2022/12/21 07:33:02;;;;;;;18.53;14.47;;;0.90;99.90;;;;;;5090515;28;20673;-48
2022/12/21 07:35:29;;;;;;;14.43;11.90;;;1.00;99.90;;;;;;5093776;28;20532;-48
2022/12/21 07:37:56;;;;;;;9.53;8.07;;;1.20;99.90;;;;;;5094193;28;20534;-48
2022/12/21 07:40:23;;;;;;;8.50;6.30;;;1.40;99.90;;;;;;5094474;28;20464;-51
2022/12/21 07:42:51;;;;;;;7.87;6.60;;;1.50;99.90;;;;;;5094763;28;20937;-48
2022/12/21 07:45:18;;;;;;;13.30;8.73;;;1.50;99.90;;;;;;5094311;28;20480;-48
2022/12/21 07:47:47;;;;;;;15.70;12.47;;;1.50;99.90;;;;;;5094839;28;20551;-48
2022/12/21 07:50:14;;;;;;;22.77;16.37;;;1.50;99.90;;;;;;5094042;28;20549;-51
2022/12/21 07:52:40;;;;;;;21.80;16.93;;;1.20;99.90;;;;;;5094255;28;20527;-48
2022/12/21 07:55:08;;;;;;;25.30;18.00;;;1.20;99.90;;;;;;5094031;28;21003;-48
2022/12/21 07:57:35;;;;;;;18.60;16.20;;;1.00;99.90;;;;;;5093653;28;20992;-48
2022/12/21 08:00:04;;;;;;;27.07;18.70;;;1.00;99.90;;;;;;5094067;28;20460;-51
2022/12/21 08:02:31;;;;;;;27.60;19.00;;;1.10;99.90;;;;;;5094092;28;20489;-48
2022/12/21 08:04:58;;;;;;;24.77;18.57;;;1.10;99.90;;;;;;5093937;28;20531;-48
2022/12/21 08:07:25;;;;;;;23.47;16.60;;;1.10;99.90;;;;;;5093886;28;20512;-49
2022/12/21 08:09:53;;;;;;;23.80;17.87;;;1.20;99.90;;;;;;5094083;28;20521;-48
2022/12/21 08:12:20;;;;;;;22.47;17.03;;;1.30;99.90;;;;;;5094010;28;20887;-48
2022/12/21 08:14:47;;;;;;;25.33;19.37;;;1.30;99.90;;;;;;5093722;28;20468;-48
2022/12/21 08:17:16;;;;;;;29.37;19.50;;;1.30;99.90;;;;;;5093573;28;20531;-49
2022/12/21 08:19:43;;;;;;;25.90;20.53;;;1.30;99.90;;;;;;5078740;28;20459;-48
2022/12/21 08:22:10;;;;;;;34.70;24.03;;;1.40;99.90;;;;;;5093935;28;20507;-49
2022/12/21 08:24:37;;;;;;;33.03;24.77;;;1.40;99.90;;;;;;5093608;28;20454;-48
2022/12/21 08:27:04;;;;;;;27.83;21.53;;;1.40;99.90;;;;;;5093617;28;20479;-51
2022/12/21 08:29:31;;;;;;;28.30;20.60;;;1.50;99.90;;;;;;5093479;28;20503;-49
2022/12/21 08:31:58;;;;;;;17.40;14.30;;;1.50;99.90;;;;;;5093764;28;20440;-48
2022/12/21 08:34:26;;;;;;;13.17;11.73;;;1.70;99.90;;;;;;5093219;28;20480;-50
2022/12/21 08:36:53;;;;;;;11.33;10.00;;;1.70;99.90;;;;;;5093544;28;21000;-48
2022/12/21 08:39:29;;;;;;;10.00;9.00;;;1.80;99.90;;;;;;5093385;28;20576;-45
2022/12/21 08:41:56;;;;;;;10.13;9.10;;;1.80;99.90;;;;;;5093680;28;20511;-48
2022/12/21 08:44:23;;;;;;;7.37;6.63;;;1.80;99.90;;;;;;5093073;28;20487;-49
2022/12/21 08:46:50;;;;;;;7.17;6.47;;;1.90;99.90;;;;;;5092634;28;20444;-48
2022/12/21 08:49:16;;;;;;;7.37;6.67;;;1.80;99.90;;;;;;5092636;28;20456;-50
2022/12/21 08:51:45;;;;;;;14.97;12.20;;;1.80;99.90;;;;;;5093289;28;20875;-51
2022/12/21 08:54:11;;;;;;;32.97;22.50;;;1.80;99.90;;;;;;5075663;28;20503;-51
2022/12/21 08:56:38;;;;;;;27.53;21.10;;;1.80;99.90;;;;;;5093008;28;20515;-48
2022/12/21 08:59:07;;;;;;;22.57;18.23;;;1.70;99.90;;;;;;5092430;28;20479;-48
2022/12/21 09:01:35;;;;;;;5.37;4.87;;;1.70;99.90;;;;;;5093394;28;20483;-48
2022/12/21 09:04:03;;;;;;;18.50;12.97;;;1.80;99.90;;;;;;5092689;28;20476;-48
2022/12/21 09:06:30;;;;;;;18.60;16.43;;;1.80;99.90;;;;;;5092873;28;20444;-48
2022/12/21 09:08:59;;;;;;;22.77;18.03;;;1.70;99.90;;;;;;5092725;28;20536;-48
2022/12/21 09:11:27;;;;;;;22.70;20.40;;;1.60;99.90;;;;;;5092962;28;20520;-48
2022/12/21 09:13:54;;;;;;;29.40;25.10;;;1.70;99.90;;;;;;5093058;28;20531;-48
2022/12/21 09:16:23;;;;;;;32.27;24.33;;;1.60;99.90;;;;;;5092836;28;21049;-47
2022/12/21 09:18:51;;;;;;;33.33;24.33;;;1.40;99.90;;;;;;5092386;28;21000;-48
2022/12/21 09:21:20;;;;;;;31.77;25.00;;;1.30;99.90;;;;;;5092173;28;20558;-49
2022/12/21 09:23:47;;;;;;;30.97;24.47;;;1.40;99.90;;;;;;5092678;28;20436;-47
2022/12/21 09:26:17;;;;;;;26.67;20.97;;;1.50;99.90;;;;;;5092447;28;20869;-49
2022/12/21 09:28:43;;;;;;;19.77;17.00;;;1.50;99.90;;;;;;5091261;28;20468;-48
2022/12/21 09:31:13;;;;;;;13.73;12.40;;;1.60;99.90;;;;;;5090533;28;20567;-50
2022/12/21 09:33:40;;;;;;;16.30;12.47;;;1.70;99.90;;;;;;5089258;28;20515;-48
2022/12/21 09:36:08;;;;;;;18.07;15.37;;;1.60;99.90;;;;;;5089798;28;20441;-49
2022/12/21 09:38:35;;;;;;;17.37;15.63;;;1.60;99.90;;;;;;5090387;28;20477;-51
2022/12/21 09:41:03;;;;;;;14.07;12.40;;;1.60;99.90;;;;;;5090183;28;20492;-48
2022/12/21 09:43:40;;;;;;;17.70;13.10;;;1.60;99.90;;;;;;5090233;28;21027;-48
2022/12/21 09:46:11;;;;;;;15.00;13.37;;;1.70;99.90;;;;;;5090753;28;20448;-48
2022/12/21 09:48:41;;;;;;;15.73;14.10;;;1.80;99.90;;;;;;5090849;28;20454;-49
2022/12/21 09:51:13;;;;;;;34.23;22.53;;;1.90;99.90;;;;;;5070760;28;21016;-48
2022/12/21 09:53:45;;;;;;;25.20;22.60;;;2.00;99.90;;;;;;5090211;28;20475;-48
2022/12/21 09:56:17;;;;;;;26.63;19.70;;;1.90;99.90;;;;;;5090576;28;20462;-48
2022/12/21 09:58:48;;;;;;;24.00;20.13;;;2.00;99.90;;;;;;5091085;28;20528;-50
2022/12/21 10:01:21;;;;;;;22.60;19.20;;;2.00;99.90;;;;;;5091873;28;20468;-48
2022/12/21 10:04:16;;;;;;;23.97;18.10;;;2.10;99.90;;;;;;5091968;28;20526;-48
2022/12/21 10:07:05;;;;;;;26.17;16.80;;;2.10;99.90;;;;;;5092164;28;20522;-49
2022/12/21 10:09:53;;;;;;;21.07;18.57;;;2.10;99.90;;;;;;5091777;28;20907;-48
2022/12/21 10:12:29;;;;;;;23.57;18.33;;;2.10;99.90;;;;;;5091990;28;20464;-47
2022/12/21 10:15:11;;;;;;;27.60;20.90;;;2.10;99.90;;;;;;5091991;28;20852;-48
2022/12/21 10:17:49;;;;;;;25.87;23.17;;;2.10;99.90;;;;;;5090334;28;21007;-48
2022/12/21 10:20:27;;;;;;;27.57;23.80;;;2.10;99.90;;;;;;5090634;28;20859;-48
2022/12/21 10:22:58;;;;;;;29.30;24.47;;;2.10;99.90;;;;;;5091099;28;20586;-48
2022/12/21 10:25:29;;;;;;;28.20;23.37;;;2.10;99.90;;;;;;5091236;28;20527;-51
2022/12/21 10:28:03;;;;;;;30.73;24.30;;;2.10;99.90;;;;;;5091143;28;20815;-48
2022/12/21 10:30:33;;;;;;;26.80;21.80;;;2.10;99.90;;;;;;5091164;28;20488;-48
2022/12/21 10:33:00;;;;;;;23.40;21.10;;;2.20;99.90;;;;;;5090781;28;20957;-48
2022/12/21 10:35:36;;;;;;;22.07;19.43;;;2.30;99.90;;;;;;5091167;28;20449;-48
2022/12/21 10:38:10;;;;;;;20.00;17.90;;;2.30;99.90;;;;;;5091548;28;20497;-48
2022/12/21 10:40:37;;;;;;;21.20;16.97;;;2.30;99.90;;;;;;5091434;28;20554;-48
2022/12/21 10:43:04;;;;;;;18.23;16.23;;;2.30;99.90;;;;;;5091496;28;21036;-51
2022/12/21 10:45:33;;;;;;;18.60;14.47;;;2.20;99.90;;;;;;5091684;28;20879;-48
2022/12/21 10:48:00;;;;;;;20.57;15.47;;;2.20;99.90;;;;;;5091260;28;20523;-49
2022/12/21 10:50:31;;;;;;;28.03;22.43;;;2.40;99.90;;;;;;5090471;28;21004;-52
2022/12/21 10:52:59;;;;;;;27.50;24.07;;;2.20;99.90;;;;;;5089319;28;20937;-49
2022/12/21 10:55:33;;;;;;;26.10;21.90;;;2.00;99.90;;;;;;5088707;28;20478;-50
2022/12/21 10:58:18;;;;;;;26.50;23.70;;;2.10;99.90;;;;;;5089678;28;20815;-49
2022/12/21 11:00:57;;;;;;;26.30;23.53;;;1.90;99.90;;;;;;5069768;28;20463;-49
2022/12/21 11:03:29;;;;;;;24.40;21.77;;;2.00;99.90;;;;;;5069856;28;20988;-49
2022/12/21 11:05:56;;;;;;;21.77;19.30;;;1.90;99.90;;;;;;5084863;28;20447;-49
2022/12/21 11:08:27;;;;;;;22.87;19.03;;;1.90;99.90;;;;;;5090608;28;20475;-50
2022/12/21 11:10:55;;;;;;;21.10;18.57;;;2.00;99.90;;;;;;5093432;28;20507;-51
2022/12/21 11:13:24;;;;;;;21.83;19.50;;;2.10;99.90;;;;;;5089768;28;20447;-51
2022/12/21 11:15:55;;;;;;;27.03;22.27;;;2.20;99.90;;;;;;5080780;28;20546;-49
2022/12/21 11:18:36;;;;;;;28.47;22.70;;;2.30;99.90;;;;;;5095499;28;20532;-49
2022/12/21 11:21:05;;;;;;;28.17;22.80;;;2.30;99.90;;;;;;5094556;28;21058;-51
2022/12/21 11:23:33;;;;;;;24.37;21.77;;;2.20;99.90;;;;;;5094434;28;20551;-49
2022/12/21 11:26:00;;;;;;;23.10;20.80;;;2.20;99.90;;;;;;5094845;28;20468;-49
2022/12/21 11:28:28;;;;;;;22.80;19.67;;;2.20;99.90;;;;;;5094874;28;20454;-49
2022/12/21 11:31:00;;;;;;;21.80;17.90;;;2.30;99.90;;;;;;5094451;28;20488;-49
2022/12/21 11:33:28;;;;;;;21.70;17.50;;;2.40;99.90;;;;;;5093169;28;20861;-49
2022/12/21 11:36:13;;;;;;;21.20;16.63;;;2.40;99.90;;;;;;5093624;28;20509;-49
2022/12/21 11:38:41;;;;;;;14.10;12.70;;;2.50;99.90;;;;;;5094151;28;20467;-50
2022/12/21 11:41:20;;;;;;;14.97;12.97;;;2.50;99.90;;;;;;5094248;28;20995;-52
2022/12/21 11:43:49;;;;;;;18.33;15.33;;;2.50;99.90;;;;;;5094065;28;20564;-49
2022/12/21 11:46:27;;;;;;;22.47;19.87;;;2.50;99.90;;;;;;5094845;28;20449;-49
2022/12/21 11:49:12;;;;;;;30.37;23.50;;;2.50;99.90;;;;;;5094409;28;20660;-49
2022/12/21 11:51:46;;;;;;;30.93;27.60;;;2.70;99.90;;;;;;5094339;28;20467;-50
2022/12/21 11:54:28;;;;;;;37.03;28.80;;;2.70;99.90;;;;;;5094503;28;20533;-50
2022/12/21 11:57:04;;;;;;;33.57;25.97;;;2.70;99.90;;;;;;5094148;28;20475;-52
2022/12/21 11:59:45;;;;;;;26.70;22.47;;;2.70;99.90;;;;;;5093128;28;20555;-50
2022/12/21 12:02:32;;;;;;;25.17;21.60;;;2.50;99.90;;;;;;5092585;28;20911;-51
2022/12/21 12:05:18;;;;;;;25.53;20.07;;;2.60;99.90;;;;;;5072389;28;20441;-49
2022/12/21 12:07:54;;;;;;;20.60;18.50;;;2.50;99.90;;;;;;5077516;28;20475;-49
2022/12/21 12:10:40;;;;;;;21.20;18.77;;;2.60;99.90;;;;;;5092584;28;20468;-49
2022/12/21 12:13:16;;;;;;;21.70;19.40;;;2.60;99.90;;;;;;5093057;28;20440;-49
2022/12/21 12:15:53;;;;;;;21.77;19.50;;;2.60;99.90;;;;;;5091375;28;20919;-50
2022/12/21 12:18:36;;;;;;;28.57;18.87;;;2.70;99.90;;;;;;5092165;28;21005;-50
2022/12/21 12:21:24;;;;;;;21.80;16.70;;;2.60;99.90;;;;;;5090954;28;20492;-49
2022/12/21 12:24:00;;;;;;;17.90;16.00;;;2.50;99.90;;;;;;5091711;28;20474;-50
2022/12/21 12:26:34;;;;;;;16.10;14.40;;;2.40;99.90;;;;;;5092865;28;20472;-51
2022/12/21 12:29:20;;;;;;;21.93;17.13;;;2.60;99.90;;;;;;5092818;28;20578;-52
2022/12/21 12:32:01;;;;;;;29.57;25.03;;;2.80;99.90;;;;;;5077535;28;20522;-49
2022/12/21 12:34:54;;;;;;;32.30;26.67;;;2.80;99.90;;;;;;5081453;28;20530;-50
2022/12/21 12:37:33;;;;;;;26.40;23.03;;;2.40;99.90;;;;;;5088658;28;20453;-49
2022/12/21 12:40:13;;;;;;;24.63;22.20;;;2.40;99.90;;;;;;5092404;28;20892;-51
2022/12/21 12:42:43;;;;;;;26.90;24.00;;;2.40;99.90;;;;;;5092181;28;20566;-51
2022/12/21 12:45:28;;;;;;;26.63;23.40;;;2.40;99.90;;;;;;5092564;28;20531;-51
2022/12/21 12:47:59;;;;;;;22.27;19.87;;;2.50;99.90;;;;;;5093735;28;20436;-49
2022/12/21 12:50:38;;;;;;;24.87;22.37;;;2.50;99.90;;;;;;5092974;28;21007;-49
2022/12/21 12:53:24;;;;;;;25.00;20.40;;;2.60;99.90;;;;;;5093527;28;20456;-51
2022/12/21 12:56:00;;;;;;;30.45;24.70;;;2.60;99.90;;;;;;5092034;28;21024;-49
2022/12/21 12:58:37;;;;;;;21.13;18.90;;;2.60;99.90;;;;;;5091439;28;20286;-49
2022/12/21 13:01:10;;;;;;;26.80;21.17;;;2.50;99.90;;;;;;5091235;28;20562;-49
2022/12/21 13:03:55;;;;;;;25.27;22.53;;;2.50;99.90;;;;;;5091050;28;20499;-50
2022/12/21 13:06:35;;;;;;;21.23;18.93;;;2.60;99.90;;;;;;5088582;28;20557;-50
2022/12/21 13:09:10;;;;;;;18.47;13.40;;;2.70;99.90;;;;;;5089343;28;20690;-51
2022/12/21 13:11:47;;;;;;;15.37;13.73;;;2.70;99.90;;;;;;5089470;28;20443;-49
2022/12/21 13:14:23;;;;;;;14.47;11.80;;;2.80;99.90;;;;;;5072225;28;20920;-49
2022/12/21 13:16:57;;;;;;;11.13;10.03;;;2.90;99.90;;;;;;5083231;28;20476;-52